createdAt,value
2018-03-27T00:00:14.154Z,2.83
2018-03-27T00:01:14.110Z,2.86
2018-03-27T00:02:14.069Z,2.87
2018-03-27T00:03:14.015Z,2.97
2018-03-27T00:04:14.018Z,2.89
2018-03-27T00:05:14.226Z,2.99
2018-03-27T00:06:13.874Z,2.90
2018-03-27T00:07:13.869Z,2.94
2018-03-27T00:08:13.783Z,2.94
2018-03-27T00:09:13.729Z,2.97
2018-03-27T00:10:13.724Z,2.98
2018-03-27T00:11:13.927Z,2.98
2018-03-27T00:12:13.578Z,2.97
2018-03-27T00:13:13.543Z,2.99
2018-03-27T00:14:13.486Z,3.04
2018-03-27T00:15:13.436Z,3.04
2018-03-27T00:16:13.435Z,3.07
2018-03-27T00:17:13.640Z,3.07
2018-03-27T00:18:13.291Z,3.15
2018-03-27T00:19:13.242Z,3.15
2018-03-27T00:20:13.196Z,3.20
2018-03-27T00:21:13.147Z,3.26
2018-03-27T00:22:13.097Z,3.33
2018-03-27T00:23:13.051Z,3.23
2018-03-27T00:24:13.302Z,3.26
2018-03-27T00:25:12.952Z,3.37
2018-03-27T00:26:12.915Z,3.33
2018-03-27T00:27:12.861Z,3.33
2018-03-27T00:28:12.811Z,3.31
2018-03-27T00:29:12.766Z,3.39
2018-03-27T00:30:12.716Z,3.46
2018-03-27T00:31:12.964Z,3.46
2018-03-27T00:32:12.769Z,3.50
2018-03-27T00:33:12.569Z,3.44
2018-03-27T00:34:12.520Z,3.53
2018-03-27T00:35:12.474Z,3.46
2018-03-27T00:36:12.427Z,3.39
2018-03-27T00:37:12.376Z,3.44
2018-03-27T00:38:12.630Z,3.42
2018-03-27T00:39:12.287Z,3.41
2018-03-27T00:40:12.233Z,3.44
2018-03-27T00:41:12.191Z,3.44
2018-03-27T00:42:12.137Z,3.53
2018-03-27T00:43:12.245Z,3.54
2018-03-27T00:44:12.043Z,3.52
2018-03-27T00:45:12.342Z,3.42
2018-03-27T00:46:11.947Z,3.52
2018-03-27T00:47:11.902Z,3.44
2018-03-27T00:48:11.851Z,3.44
2018-03-27T00:49:12.002Z,3.46
2018-03-27T00:50:11.755Z,3.46
2018-03-27T00:51:11.708Z,3.46
2018-03-27T00:52:11.966Z,3.52
2018-03-27T00:53:11.610Z,3.54
2018-03-27T00:54:11.563Z,3.50
2018-03-27T00:55:11.569Z,3.44
2018-03-27T00:56:11.467Z,3.49
2018-03-27T00:57:11.419Z,3.39
2018-03-27T00:58:11.376Z,3.26
2018-03-27T00:59:11.628Z,3.35
2018-03-27T01:00:11.276Z,3.42
2018-03-27T01:01:11.228Z,3.49
2018-03-27T01:02:11.180Z,3.39
2018-03-27T01:03:11.136Z,3.41
2018-03-27T01:04:11.088Z,3.44
2018-03-27T01:05:11.336Z,3.42
2018-03-27T01:06:11.040Z,3.45
2018-03-27T01:07:10.941Z,3.45
2018-03-27T01:08:10.894Z,3.50
2018-03-27T01:09:10.847Z,3.49
2018-03-27T01:10:10.804Z,3.39
2018-03-27T01:11:11.056Z,3.42
2018-03-27T01:12:10.855Z,3.49
2018-03-27T01:13:10.656Z,3.54
2018-03-27T01:14:10.613Z,3.52
2018-03-27T01:15:10.563Z,3.54
2018-03-27T01:16:10.511Z,3.53
2018-03-27T01:17:10.763Z,3.44
2018-03-27T01:18:10.468Z,3.44
2018-03-27T01:19:10.367Z,3.46
2018-03-27T01:20:10.325Z,3.41
2018-03-27T01:21:10.271Z,3.46
2018-03-27T01:22:10.226Z,3.37
2018-03-27T01:23:10.480Z,3.44
2018-03-27T01:24:10.131Z,3.49
2018-03-27T01:25:10.079Z,3.49
2018-03-27T01:26:10.032Z,3.50
2018-03-27T01:27:09.991Z,3.63
2018-03-27T01:28:09.938Z,3.59
2018-03-27T01:29:10.192Z,3.57
2018-03-27T01:30:09.844Z,3.59
2018-03-27T01:31:09.798Z,3.54
2018-03-27T01:32:09.750Z,3.56
2018-03-27T01:33:09.696Z,3.50
2018-03-27T01:34:09.655Z,3.59
2018-03-27T01:35:09.603Z,3.59
2018-03-27T01:36:09.857Z,3.62
2018-03-27T01:37:09.506Z,3.68
2018-03-27T01:38:09.461Z,3.59
2018-03-27T01:39:09.415Z,3.68
2018-03-27T01:40:09.367Z,3.54
2018-03-27T01:41:09.315Z,3.62
2018-03-27T01:42:09.268Z,3.62
2018-03-27T01:43:09.520Z,3.62
2018-03-27T01:44:09.235Z,3.54
2018-03-27T01:45:09.124Z,3.64
2018-03-27T01:46:09.077Z,3.57
2018-03-27T01:47:09.031Z,3.68
2018-03-27T01:48:08.990Z,3.72
2018-03-27T01:49:08.935Z,3.71
2018-03-27T01:50:09.442Z,3.63
2018-03-27T01:51:08.840Z,3.70
2018-03-27T01:52:08.791Z,3.70
2018-03-27T01:53:08.742Z,3.71
2018-03-27T01:54:08.697Z,3.75
2018-03-27T01:55:08.659Z,3.84
2018-03-27T01:56:08.602Z,3.77
2018-03-27T01:57:08.851Z,3.80
2018-03-27T01:58:08.503Z,3.89
2018-03-27T01:59:08.456Z,3.90
2018-03-27T02:00:08.408Z,3.88
2018-03-27T02:01:08.414Z,3.88
2018-03-27T02:02:08.313Z,3.84
2018-03-27T02:03:08.265Z,3.92
2018-03-27T02:04:08.522Z,3.95
2018-03-27T02:05:08.197Z,3.93
2018-03-27T02:06:08.121Z,3.93
2018-03-27T02:07:08.074Z,3.82
2018-03-27T02:08:08.026Z,3.81
2018-03-27T02:09:07.979Z,3.82
2018-03-27T02:10:08.232Z,3.86
2018-03-27T02:11:07.883Z,3.89
2018-03-27T02:12:07.836Z,3.89
2018-03-27T02:13:07.788Z,3.84
2018-03-27T02:14:07.744Z,3.78
2018-03-27T02:15:07.693Z,3.80
2018-03-27T02:16:07.945Z,3.88
2018-03-27T02:17:07.597Z,3.72
2018-03-27T02:18:07.550Z,3.92
2018-03-27T02:19:07.503Z,3.84
2018-03-27T02:20:07.455Z,3.81
2018-03-27T02:21:07.405Z,3.82
2018-03-27T02:22:07.658Z,3.86
2018-03-27T02:23:07.316Z,3.88
2018-03-27T02:24:07.263Z,3.86
2018-03-27T02:25:07.217Z,3.81
2018-03-27T02:26:07.169Z,3.86
2018-03-27T02:27:07.123Z,3.82
2018-03-27T02:28:07.372Z,3.72
2018-03-27T02:29:07.039Z,3.71
2018-03-27T02:30:06.976Z,3.68
2018-03-27T02:31:06.928Z,3.75
2018-03-27T02:32:06.882Z,3.82
2018-03-27T02:33:06.847Z,3.81
2018-03-27T02:34:07.097Z,3.82
2018-03-27T02:35:06.744Z,3.77
2018-03-27T02:36:06.691Z,3.78
2018-03-27T02:37:06.691Z,3.71
2018-03-27T02:38:06.595Z,3.72
2018-03-27T02:39:06.547Z,3.84
2018-03-27T02:40:06.509Z,3.88
2018-03-27T02:41:06.752Z,3.84
2018-03-27T02:42:06.405Z,3.74
2018-03-27T02:43:06.406Z,3.82
2018-03-27T02:44:06.306Z,3.80
2018-03-27T02:45:06.258Z,3.74
2018-03-27T02:46:06.212Z,3.72
2018-03-27T02:47:06.162Z,3.68
2018-03-27T02:48:06.416Z,3.64
2018-03-27T02:49:06.116Z,3.68
2018-03-27T02:50:06.021Z,3.59
2018-03-27T02:51:06.020Z,3.56
2018-03-27T02:52:05.942Z,3.59
2018-03-27T02:53:05.874Z,3.68
2018-03-27T02:54:05.833Z,3.56
2018-03-27T02:55:06.080Z,3.67
2018-03-27T02:56:05.743Z,3.64
2018-03-27T02:57:05.684Z,3.59
2018-03-27T02:58:05.639Z,3.67
2018-03-27T02:59:05.597Z,3.67
2018-03-27T03:00:05.601Z,3.70
2018-03-27T03:01:05.549Z,3.72
2018-03-27T03:02:05.744Z,3.70
2018-03-27T03:03:05.399Z,3.68
2018-03-27T03:04:05.348Z,3.64
2018-03-27T03:05:05.300Z,3.72
2018-03-27T03:06:05.453Z,3.62
2018-03-27T03:07:05.204Z,3.63
2018-03-27T03:08:05.157Z,3.57
2018-03-27T03:09:05.411Z,3.53
2018-03-27T03:10:05.064Z,3.62
2018-03-27T03:11:05.013Z,3.52
2018-03-27T03:12:05.017Z,3.50
2018-03-27T03:13:04.918Z,3.45
2018-03-27T03:14:04.873Z,3.31
2018-03-27T03:15:04.841Z,3.33
2018-03-27T03:16:05.079Z,3.30
2018-03-27T03:17:04.725Z,3.30
2018-03-27T03:18:04.680Z,3.34
2018-03-27T03:19:04.694Z,3.28
2018-03-27T03:20:04.581Z,3.35
2018-03-27T03:21:04.539Z,3.30
2018-03-27T03:22:04.795Z,3.26
2018-03-27T03:23:04.438Z,3.26
2018-03-27T03:24:04.392Z,3.22
2018-03-27T03:25:04.342Z,3.16
2018-03-27T03:26:04.294Z,3.15
2018-03-27T03:27:04.253Z,3.04
2018-03-27T03:28:04.548Z,3.05
2018-03-27T03:29:04.154Z,3.07
2018-03-27T03:30:04.102Z,3.07
2018-03-27T03:31:04.054Z,3.12
2018-03-27T03:32:04.008Z,3.13
2018-03-27T03:33:03.957Z,3.05
2018-03-27T03:34:04.407Z,2.94
2018-03-27T03:35:03.863Z,2.98
2018-03-27T03:36:03.813Z,2.84
2018-03-27T03:37:03.764Z,2.79
2018-03-27T03:38:03.716Z,2.81
2018-03-27T03:39:03.671Z,2.83
2018-03-27T03:40:03.922Z,2.73
2018-03-27T03:41:03.573Z,2.68
2018-03-27T03:42:03.537Z,2.68
2018-03-27T03:43:03.477Z,2.74
2018-03-27T03:44:03.432Z,2.66
2018-03-27T03:45:03.582Z,2.65
2018-03-27T03:46:03.690Z,2.68
2018-03-27T03:47:03.287Z,2.63
2018-03-27T03:48:03.235Z,2.59
2018-03-27T03:49:03.186Z,2.65
2018-03-27T03:50:03.137Z,2.59
2018-03-27T03:51:03.137Z,2.63
2018-03-27T03:52:03.041Z,2.58
2018-03-27T03:53:03.330Z,2.55
2018-03-27T03:54:02.950Z,2.43
2018-03-27T03:55:02.894Z,2.38
2018-03-27T03:56:02.852Z,2.33
2018-03-27T03:57:02.849Z,2.33
2018-03-27T03:58:02.748Z,2.30
2018-03-27T03:59:02.699Z,2.25
2018-03-27T04:00:02.955Z,2.22
2018-03-27T04:01:02.601Z,2.18
2018-03-27T04:02:02.555Z,2.09
2018-03-27T04:03:02.547Z,1.98
2018-03-27T04:04:02.455Z,1.86
2018-03-27T04:05:02.405Z,1.83
2018-03-27T04:06:02.357Z,1.86
2018-03-27T04:07:02.607Z,1.88
2018-03-27T04:08:02.411Z,1.89
2018-03-27T04:09:02.212Z,1.83
2018-03-27T04:10:02.160Z,1.71
2018-03-27T04:11:02.122Z,1.71
2018-03-27T04:12:02.067Z,1.67
2018-03-27T04:13:02.012Z,1.64
2018-03-27T04:14:02.319Z,1.60
2018-03-27T04:15:01.916Z,1.64
2018-03-27T04:16:01.867Z,1.74
2018-03-27T04:17:01.868Z,1.72
2018-03-27T04:18:01.821Z,1.75
2018-03-27T04:19:01.720Z,1.75
2018-03-27T04:20:01.722Z,1.60
2018-03-27T04:21:01.923Z,1.53
2018-03-27T04:22:01.572Z,1.47
2018-03-27T04:23:01.522Z,1.44
2018-03-27T04:24:01.479Z,1.38
2018-03-27T04:25:01.432Z,1.31
2018-03-27T04:26:01.382Z,1.38
2018-03-27T04:27:01.327Z,1.39
2018-03-27T04:28:01.585Z,1.39
2018-03-27T04:29:01.228Z,1.49
2018-03-27T04:30:01.179Z,1.53
2018-03-27T04:31:01.128Z,1.54
2018-03-27T04:32:01.081Z,1.67
2018-03-27T04:33:01.031Z,1.60
2018-03-27T04:34:01.283Z,1.64
2018-03-27T04:35:00.932Z,1.60
2018-03-27T04:36:00.883Z,1.60
2018-03-27T04:37:00.837Z,1.65
2018-03-27T04:38:00.822Z,1.68
2018-03-27T04:39:00.735Z,1.74
2018-03-27T04:40:00.985Z,1.85
2018-03-27T04:41:00.643Z,1.86
2018-03-27T04:42:00.605Z,1.88
2018-03-27T04:43:00.544Z,1.88
2018-03-27T04:44:00.488Z,1.93
2018-03-27T04:45:00.439Z,1.89
2018-03-27T04:46:00.691Z,1.95
2018-03-27T04:47:00.417Z,2.02
2018-03-27T04:48:00.292Z,2.09
2018-03-27T04:49:00.243Z,2.25
2018-03-27T04:50:00.196Z,2.22
2018-03-27T04:51:00.148Z,2.29
2018-03-27T04:52:00.398Z,2.30
2018-03-27T04:53:00.047Z,2.26
2018-03-27T04:54:00.001Z,2.30
2018-03-27T04:54:59.953Z,2.50
2018-03-27T04:55:59.903Z,2.45
2018-03-27T04:56:59.851Z,2.56
2018-03-27T04:57:59.806Z,2.51
2018-03-27T04:59:00.058Z,2.48
2018-03-27T04:59:59.705Z,2.53
2018-03-27T05:00:59.660Z,2.51
2018-03-27T05:01:59.605Z,2.53
2018-03-27T05:02:59.570Z,2.55
2018-03-27T05:03:59.508Z,2.65
2018-03-27T05:04:59.470Z,2.61
2018-03-27T05:05:59.717Z,2.66
2018-03-27T05:06:59.363Z,2.63
2018-03-27T05:07:59.315Z,2.65
2018-03-27T05:08:59.287Z,2.66
2018-03-27T05:09:59.218Z,2.76
2018-03-27T05:10:59.368Z,2.83
2018-03-27T05:11:59.127Z,2.77
2018-03-27T05:12:59.371Z,2.81
2018-03-27T05:13:59.022Z,2.84
2018-03-27T05:14:58.973Z,2.90
2018-03-27T05:15:58.926Z,2.98
2018-03-27T05:16:58.887Z,2.95
2018-03-27T05:17:58.827Z,3.01
2018-03-27T05:18:58.785Z,3.04
2018-03-27T05:19:59.037Z,3.05
2018-03-27T05:20:58.692Z,2.98
2018-03-27T05:21:58.633Z,3.04
2018-03-27T05:22:58.586Z,3.07
2018-03-27T05:23:58.537Z,3.15
2018-03-27T05:24:58.488Z,3.10
2018-03-27T05:25:58.440Z,3.10
2018-03-27T05:26:58.693Z,3.10
2018-03-27T05:27:58.346Z,3.19
2018-03-27T05:28:58.298Z,3.26
2018-03-27T05:29:58.250Z,3.28
2018-03-27T05:30:58.204Z,3.31
2018-03-27T05:31:58.152Z,3.26
2018-03-27T05:32:58.102Z,3.28
2018-03-27T05:33:58.353Z,3.41
2018-03-27T05:34:58.009Z,3.45
2018-03-27T05:35:57.965Z,3.41
2018-03-27T05:36:57.907Z,3.45
2018-03-27T05:37:57.859Z,3.54
2018-03-27T05:38:57.811Z,3.44
2018-03-27T05:39:58.064Z,3.50
2018-03-27T05:40:57.716Z,3.52
2018-03-27T05:41:57.721Z,3.45
2018-03-27T05:42:57.619Z,3.49
2018-03-27T05:43:57.569Z,3.50
2018-03-27T05:44:57.522Z,3.64
2018-03-27T05:45:57.775Z,3.54
2018-03-27T05:46:57.426Z,3.63
2018-03-27T05:47:57.387Z,3.59
2018-03-27T05:48:57.334Z,3.59
2018-03-27T05:49:57.280Z,3.59
2018-03-27T05:50:57.284Z,3.57
2018-03-27T05:51:57.489Z,3.67
2018-03-27T05:52:57.136Z,3.67
2018-03-27T05:53:57.095Z,3.63
2018-03-27T05:54:57.051Z,3.63
2018-03-27T05:55:57.067Z,3.63
2018-03-27T05:56:57.145Z,3.70
2018-03-27T05:57:57.194Z,3.72
2018-03-27T05:58:56.846Z,3.72
2018-03-27T05:59:56.806Z,3.62
2018-03-27T06:00:56.801Z,3.64
2018-03-27T06:01:56.751Z,3.70
2018-03-27T06:02:56.656Z,3.71
2018-03-27T06:03:56.913Z,3.72
2018-03-27T06:04:56.557Z,3.71
2018-03-27T06:05:56.558Z,3.74
2018-03-27T06:06:56.464Z,3.88
2018-03-27T06:07:56.412Z,3.82
2018-03-27T06:08:56.364Z,3.78
2018-03-27T06:09:56.316Z,3.74
2018-03-27T06:10:56.617Z,3.81
2018-03-27T06:11:56.269Z,3.72
2018-03-27T06:12:56.174Z,3.84
2018-03-27T06:13:56.325Z,3.81
2018-03-27T06:14:56.124Z,3.90
2018-03-27T06:15:56.091Z,3.89
2018-03-27T06:16:55.978Z,3.96
2018-03-27T06:17:56.231Z,4.00
2018-03-27T06:18:55.984Z,4.07
2018-03-27T06:19:55.842Z,3.92
2018-03-27T06:20:55.786Z,3.93
2018-03-27T06:21:55.938Z,4.04
2018-03-27T06:22:55.694Z,4.06
2018-03-27T06:23:55.697Z,4.00
2018-03-27T06:24:55.944Z,4.02
2018-03-27T06:26:55.552Z,4.07
2018-03-27T06:27:55.658Z,4.04
2018-03-27T06:28:55.453Z,3.93
2018-03-27T06:29:55.656Z,3.93
2018-03-27T06:30:55.463Z,4.10
2018-03-27T06:31:55.559Z,3.99
2018-03-27T06:32:55.219Z,3.93
2018-03-27T06:33:55.230Z,4.02
2018-03-27T06:34:55.182Z,4.06
2018-03-27T06:35:55.128Z,4.04
2018-03-27T06:36:55.024Z,3.98
2018-03-27T06:37:55.030Z,4.02
2018-03-27T06:38:55.226Z,4.02
2018-03-27T06:39:54.935Z,4.02
2018-03-27T06:40:54.880Z,4.04
2018-03-27T06:41:54.792Z,3.92
2018-03-27T06:42:54.885Z,3.90
2018-03-27T06:43:54.738Z,3.92
2018-03-27T06:44:54.640Z,3.99
2018-03-27T06:45:54.992Z,3.93
2018-03-27T06:46:54.555Z,3.93
2018-03-27T06:47:54.546Z,3.96
2018-03-27T06:48:54.499Z,4.04
2018-03-27T06:49:54.554Z,4.02
2018-03-27T06:50:54.405Z,4.06
2018-03-27T06:51:54.759Z,3.98
2018-03-27T06:52:54.384Z,4.00
2018-03-27T06:53:54.351Z,4.10
2018-03-27T06:54:54.373Z,4.16
2018-03-27T06:55:54.270Z,4.10
2018-03-27T06:56:54.460Z,4.13
2018-03-27T06:57:54.583Z,4.08
2018-03-27T06:58:54.131Z,4.24
2018-03-27T06:59:53.930Z,4.25
2018-03-27T07:00:53.979Z,4.20
2018-03-27T07:01:53.858Z,4.26
2018-03-27T07:02:53.847Z,4.32
2018-03-27T07:03:54.358Z,4.36
2018-03-27T07:04:53.851Z,4.42
2018-03-27T07:05:53.721Z,4.44
2018-03-27T07:06:53.632Z,4.43
2018-03-27T07:07:53.597Z,4.53
2018-03-27T07:08:53.653Z,4.50
2018-03-27T07:09:53.774Z,4.61
2018-03-27T07:10:53.467Z,4.62
2018-03-27T07:11:53.362Z,4.79
2018-03-27T07:12:53.562Z,4.94
2018-03-27T07:13:53.354Z,5.15
2018-03-27T07:14:53.233Z,5.20
2018-03-27T07:15:53.709Z,5.40
2018-03-27T07:16:53.165Z,5.42
2018-03-27T07:17:53.129Z,5.41
2018-03-27T07:18:53.183Z,5.85
2018-03-27T07:19:52.992Z,6.75
2018-03-27T07:20:53.092Z,7.57
2018-03-27T07:21:52.901Z,7.92
2018-03-27T07:22:53.355Z,7.99
2018-03-27T07:23:52.850Z,8.29
2018-03-27T07:24:52.753Z,8.89
2018-03-27T07:25:52.760Z,9.53
2018-03-27T07:26:52.965Z,9.95
2018-03-27T07:27:52.621Z,10.07
2018-03-27T07:28:52.633Z,10.09
2018-03-27T07:29:52.832Z,10.38
2018-03-27T07:30:52.640Z,10.29
2018-03-27T07:31:52.646Z,10.34
2018-03-27T07:32:52.401Z,10.06
2018-03-27T07:33:52.411Z,10.13
2018-03-27T07:34:52.313Z,10.22
2018-03-27T07:35:52.421Z,10.47
2018-03-27T07:36:52.578Z,10.07
2018-03-27T07:37:52.185Z,8.79
2018-03-27T07:38:52.197Z,9.42
2018-03-27T07:39:52.105Z,9.26
2018-03-27T07:40:52.114Z,9.12
2018-03-27T07:41:52.070Z,9.52
2018-03-27T07:42:52.029Z,10.04
2018-03-27T07:43:52.337Z,10.07
2018-03-27T07:44:53.563Z,9.83
2018-03-27T07:45:52.112Z,9.70
2018-03-27T07:46:52.021Z,10.31
2018-03-27T07:47:51.774Z,10.32
2018-03-27T07:48:51.783Z,10.44
2018-03-27T07:49:51.894Z,9.62
2018-03-27T07:50:52.010Z,10.35
2018-03-27T07:51:51.673Z,10.76
2018-03-27T07:52:51.570Z,11.26
2018-03-27T07:53:51.582Z,11.49
2018-03-27T07:54:51.649Z,11.53
2018-03-27T07:55:51.502Z,11.09
2018-03-27T07:56:51.964Z,10.87
2018-03-27T07:57:51.371Z,10.39
2018-03-27T07:58:51.385Z,10.78
2018-03-27T07:59:51.344Z,11.44
2018-03-27T08:00:51.559Z,11.82
2018-03-27T08:01:51.264Z,12.08
2018-03-27T08:02:51.476Z,12.61
2018-03-27T08:03:51.291Z,12.05
2018-03-27T08:04:51.409Z,12.55
2018-03-27T08:05:51.062Z,13.16
2018-03-27T08:06:51.080Z,13.50
2018-03-27T08:07:51.000Z,13.93
2018-03-27T08:08:51.295Z,14.24
2018-03-27T08:09:51.108Z,13.79
2018-03-27T08:10:50.868Z,14.27
2018-03-27T08:11:51.031Z,14.09
2018-03-27T08:12:50.791Z,13.50
2018-03-27T08:13:50.953Z,13.57
2018-03-27T08:14:51.073Z,14.02
2018-03-27T08:15:50.843Z,14.53
2018-03-27T08:16:50.696Z,14.59
2018-03-27T08:17:50.603Z,14.53
2018-03-27T08:18:50.770Z,14.12
2018-03-27T08:19:50.683Z,13.46
2018-03-27T08:20:50.796Z,13.76
2018-03-27T08:21:50.508Z,13.35
2018-03-27T08:22:50.472Z,13.25
2018-03-27T08:23:50.635Z,12.52
2018-03-27T08:24:50.398Z,11.94
2018-03-27T08:25:50.313Z,12.70
2018-03-27T08:26:50.633Z,12.70
2018-03-27T08:27:50.297Z,12.38
2018-03-27T08:28:50.403Z,12.73
2018-03-27T08:29:50.469Z,12.40
2018-03-27T08:30:50.130Z,12.55
2018-03-27T08:31:50.144Z,13.06
2018-03-27T08:32:50.108Z,13.14
2018-03-27T08:33:50.421Z,12.94
2018-03-27T08:34:50.038Z,13.06
2018-03-27T08:35:49.965Z,13.29
2018-03-27T08:36:50.062Z,13.06
2018-03-27T08:37:49.935Z,13.13
2018-03-27T08:38:49.898Z,13.71
2018-03-27T08:39:49.856Z,14.49
2018-03-27T08:40:50.073Z,15.43
2018-03-27T08:41:49.886Z,15.04
2018-03-27T08:42:49.850Z,15.03
2018-03-27T08:43:49.868Z,13.98
2018-03-27T08:44:49.784Z,13.90
2018-03-27T08:45:49.593Z,14.71
2018-03-27T08:46:49.609Z,14.24
2018-03-27T08:47:49.824Z,14.27
2018-03-27T08:48:49.537Z,13.90
2018-03-27T08:49:49.504Z,14.38
2018-03-27T08:50:49.422Z,14.48
2018-03-27T08:51:49.436Z,13.76
2018-03-27T08:52:49.555Z,13.28
2018-03-27T08:53:49.369Z,14.16
2018-03-27T08:54:49.633Z,14.79
2018-03-27T08:55:49.246Z,15.16
2018-03-27T08:56:49.264Z,15.84
2018-03-27T08:57:49.227Z,15.53
2018-03-27T08:58:49.351Z,15.07
2018-03-27T08:59:49.266Z,14.66
2018-03-27T09:00:49.185Z,15.23
2018-03-27T09:01:49.492Z,15.60
2018-03-27T09:02:49.056Z,14.34
2018-03-27T09:03:48.972Z,14.45
2018-03-27T09:04:49.094Z,14.59
2018-03-27T09:05:48.905Z,15.16
2018-03-27T09:06:48.922Z,16.08
2018-03-27T09:07:48.989Z,16.32
2018-03-27T09:08:49.104Z,15.35
2018-03-27T09:09:48.870Z,15.13
2018-03-27T09:10:48.737Z,15.43
2018-03-27T09:11:48.751Z,15.43
2018-03-27T09:12:48.867Z,15.51
2018-03-27T09:13:48.632Z,15.96
2018-03-27T09:14:49.000Z,16.37
2018-03-27T09:15:48.568Z,16.26
2018-03-27T09:17:48.728Z,16.91
2018-03-27T09:18:48.522Z,16.51
2018-03-27T09:19:48.587Z,15.92
2018-03-27T09:20:48.804Z,14.69
2018-03-27T09:21:48.421Z,13.32
2018-03-27T09:22:48.546Z,13.32
2018-03-27T09:23:48.309Z,13.80
2018-03-27T09:24:48.420Z,13.65
2018-03-27T09:25:48.390Z,13.90
2018-03-27T09:26:48.753Z,14.13
2018-03-27T09:27:48.220Z,15.25
2018-03-27T09:28:48.156Z,16.50
2018-03-27T09:29:48.252Z,15.96
2018-03-27T09:30:48.117Z,15.98
2018-03-27T09:31:48.086Z,16.40
2018-03-27T09:32:48.351Z,16.45
2018-03-27T09:33:47.974Z,16.51
2018-03-27T09:34:48.084Z,16.72
2018-03-27T09:35:47.954Z,15.33
2018-03-27T09:36:48.074Z,14.66
2018-03-27T09:37:48.036Z,14.38
2018-03-27T09:38:48.100Z,14.75
2018-03-27T09:39:48.071Z,14.83
2018-03-27T09:40:47.886Z,15.49
2018-03-27T09:41:47.757Z,15.55
2018-03-27T09:42:47.869Z,15.04
2018-03-27T09:43:47.640Z,15.15
2018-03-27T09:44:48.002Z,16.57
2018-03-27T09:45:47.620Z,15.64
2018-03-27T09:46:47.689Z,16.51
2018-03-27T09:47:47.559Z,15.95
2018-03-27T09:48:47.477Z,16.03
2018-03-27T09:49:47.497Z,16.62
2018-03-27T09:50:47.509Z,15.99
2018-03-27T09:51:47.727Z,15.51
2018-03-27T09:52:47.493Z,14.49
2018-03-27T09:53:47.312Z,13.90
2018-03-27T09:54:47.431Z,12.94
2018-03-27T09:55:47.456Z,12.51
2018-03-27T09:56:47.412Z,13.63
2018-03-27T09:57:47.238Z,13.22
2018-03-27T09:58:47.453Z,13.31
2018-03-27T09:59:47.312Z,14.49
2018-03-27T10:00:47.128Z,14.85
2018-03-27T10:01:47.042Z,14.17
2018-03-27T10:02:47.059Z,13.44
2018-03-27T10:03:46.974Z,13.99
2018-03-27T10:04:46.989Z,14.66
2018-03-27T10:05:47.252Z,15.11
2018-03-27T10:06:46.921Z,13.66
2018-03-27T10:07:46.885Z,12.76
2018-03-27T10:08:46.797Z,12.25
2018-03-27T10:09:46.812Z,13.51
2018-03-27T10:10:46.875Z,13.73
2018-03-27T10:11:46.690Z,12.61
2018-03-27T10:12:47.052Z,12.37
2018-03-27T10:13:46.617Z,12.25
2018-03-27T10:14:46.636Z,12.13
2018-03-27T10:15:46.762Z,12.13
2018-03-27T10:17:46.518Z,13.90
2018-03-27T10:18:46.632Z,13.16
2018-03-27T10:19:46.696Z,12.63
2018-03-27T10:20:46.607Z,12.44
2018-03-27T10:21:46.321Z,12.12
2018-03-27T10:22:46.333Z,11.94
2018-03-27T10:23:46.313Z,11.49
2018-03-27T10:24:46.258Z,11.79
2018-03-27T10:25:46.423Z,11.36
2018-03-27T10:26:46.433Z,11.78
2018-03-27T10:27:46.248Z,11.72
2018-03-27T10:28:46.273Z,12.29
2018-03-27T10:29:46.166Z,12.94
2018-03-27T10:30:46.031Z,14.16
2018-03-27T10:31:45.941Z,13.75
2018-03-27T10:32:46.302Z,14.53
2018-03-27T10:33:46.063Z,16.17
2018-03-27T10:34:45.875Z,15.60
2018-03-27T10:35:45.838Z,14.11
2018-03-27T10:36:45.751Z,13.91
2018-03-27T10:37:45.782Z,14.31
2018-03-27T10:38:46.182Z,14.66
2018-03-27T10:39:45.644Z,14.69
2018-03-27T10:40:45.855Z,14.93
2018-03-27T10:41:45.575Z,15.85
2018-03-27T10:42:45.739Z,16.37
2018-03-27T10:43:45.550Z,16.70
2018-03-27T10:44:45.967Z,16.92
2018-03-27T10:45:45.580Z,15.43
2018-03-27T10:46:45.413Z,14.13
2018-03-27T10:47:45.413Z,14.31
2018-03-27T10:48:45.482Z,15.49
2018-03-27T10:49:45.343Z,15.76
2018-03-27T10:50:45.712Z,15.48
2018-03-27T10:51:45.232Z,14.49
2018-03-27T10:52:45.245Z,15.04
2018-03-27T10:53:45.313Z,13.44
2018-03-27T10:54:45.128Z,13.27
2018-03-27T10:55:45.144Z,13.29
2018-03-27T10:56:45.371Z,13.75
2018-03-27T10:57:45.228Z,13.91
2018-03-27T10:58:45.069Z,14.39
2018-03-27T10:59:44.960Z,15.25
2018-03-27T11:00:44.980Z,15.73
2018-03-27T11:01:44.943Z,16.11
2018-03-27T11:02:45.211Z,16.65
2018-03-27T11:03:45.044Z,16.57
2018-03-27T11:04:44.790Z,16.23
2018-03-27T11:05:44.808Z,15.66
2018-03-27T11:06:44.800Z,15.85
2018-03-27T11:07:44.744Z,15.99
2018-03-27T11:08:44.708Z,16.23
2018-03-27T11:09:44.928Z,16.26
2018-03-27T11:10:44.648Z,16.41
2018-03-27T11:11:44.760Z,17.91
2018-03-27T11:12:44.581Z,16.69
2018-03-27T11:13:44.705Z,17.55
2018-03-27T11:14:44.468Z,18.25
2018-03-27T11:15:44.487Z,18.76
2018-03-27T11:16:44.959Z,16.36
2018-03-27T11:17:44.423Z,15.27
2018-03-27T11:18:44.392Z,14.52
2018-03-27T11:19:44.316Z,13.31
2018-03-27T11:20:44.379Z,15.16
2018-03-27T11:21:44.457Z,15.80
2018-03-27T11:22:44.363Z,16.17
2018-03-27T11:23:44.531Z,16.62
2018-03-27T11:24:44.162Z,16.48
2018-03-27T11:25:44.169Z,16.04
2018-03-27T11:26:44.137Z,14.80
2018-03-27T11:27:44.252Z,14.64
2018-03-27T11:28:44.218Z,15.38
2018-03-27T11:29:43.996Z,15.01
2018-03-27T11:30:44.351Z,14.48
2018-03-27T11:31:44.073Z,13.41
2018-03-27T11:32:44.033Z,13.44
2018-03-27T11:33:43.999Z,12.95
2018-03-27T11:34:43.831Z,12.96
2018-03-27T11:35:43.988Z,12.46
2018-03-27T11:36:43.943Z,12.49
2018-03-27T11:37:44.109Z,12.62
2018-03-27T11:38:43.871Z,12.58
2018-03-27T11:39:43.635Z,12.80
2018-03-27T11:40:43.756Z,15.05
2018-03-27T11:41:43.608Z,16.65
2018-03-27T11:42:43.728Z,17.02
2018-03-27T11:43:43.534Z,17.22
2018-03-27T11:44:43.751Z,16.87
2018-03-27T11:45:43.466Z,16.88
2018-03-27T11:46:43.428Z,17.00
2018-03-27T11:47:43.392Z,16.80
2018-03-27T11:48:43.363Z,16.63
2018-03-27T11:49:43.280Z,17.09
2018-03-27T11:50:43.590Z,16.51
2018-03-27T11:51:43.365Z,16.73
2018-03-27T11:52:43.172Z,16.55
2018-03-27T11:53:43.193Z,16.33
2018-03-27T11:54:43.120Z,15.05
2018-03-27T11:55:43.141Z,14.72
2018-03-27T11:56:43.395Z,15.37
2018-03-27T11:57:43.162Z,16.17
2018-03-27T11:58:43.130Z,16.14
2018-03-27T11:59:42.949Z,15.95
2018-03-27T12:00:42.963Z,16.16
2018-03-27T12:01:42.932Z,16.84
2018-03-27T12:02:43.150Z,16.77
2018-03-27T12:03:42.867Z,16.57
2018-03-27T12:04:42.793Z,16.26
2018-03-27T12:05:42.803Z,15.98
2018-03-27T12:06:42.872Z,15.44
2018-03-27T12:07:42.693Z,14.48
2018-03-27T12:08:43.058Z,14.93
2018-03-27T12:09:42.625Z,15.86
2018-03-27T12:10:42.642Z,15.53
2018-03-27T12:11:42.610Z,15.64
2018-03-27T12:12:42.526Z,15.07
2018-03-27T12:13:42.590Z,14.36
2018-03-27T12:14:42.863Z,14.36
2018-03-27T12:15:42.479Z,14.95
2018-03-27T12:16:42.444Z,14.41
2018-03-27T12:17:42.359Z,13.55
2018-03-27T12:18:42.393Z,12.98
2018-03-27T12:19:42.602Z,13.03
2018-03-27T12:20:42.806Z,13.41
2018-03-27T12:21:42.279Z,13.55
2018-03-27T12:22:42.187Z,14.09
2018-03-27T12:23:42.202Z,13.80
2018-03-27T12:24:42.169Z,13.94
2018-03-27T12:25:42.135Z,14.12
2018-03-27T12:26:42.193Z,14.20
2018-03-27T12:27:42.314Z,13.48
2018-03-27T12:28:42.018Z,13.48
2018-03-27T12:29:42.040Z,13.53
2018-03-27T12:30:42.049Z,13.48
2018-03-27T12:31:41.922Z,13.73
2018-03-27T12:32:41.822Z,13.61
2018-03-27T12:33:41.835Z,13.22
2018-03-27T12:34:42.100Z,13.88
2018-03-27T12:35:42.012Z,14.02
2018-03-27T12:36:41.742Z,13.39
2018-03-27T12:37:41.647Z,13.84
2018-03-27T12:38:41.656Z,14.01
2018-03-27T12:39:41.715Z,14.17
2018-03-27T12:40:41.573Z,14.48
2018-03-27T12:41:41.938Z,14.63
2018-03-27T12:42:41.449Z,15.01
2018-03-27T12:43:41.466Z,14.85
2018-03-27T12:44:41.524Z,14.98
2018-03-27T12:45:41.384Z,15.33
2018-03-27T12:46:41.363Z,14.91
2018-03-27T12:47:41.416Z,14.85
2018-03-27T12:48:41.572Z,15.00
2018-03-27T12:49:41.234Z,14.64
2018-03-27T12:50:41.198Z,14.49
2018-03-27T12:51:41.264Z,14.12
2018-03-27T12:52:41.075Z,13.79
2018-03-27T12:53:41.233Z,14.13
2018-03-27T12:54:41.204Z,14.08
2018-03-27T12:55:41.322Z,14.13
2018-03-27T12:56:41.075Z,14.23
2018-03-27T12:57:40.887Z,14.29
2018-03-27T12:58:40.905Z,13.51
2018-03-27T12:59:40.861Z,13.35
2018-03-27T13:00:40.825Z,13.79
2018-03-27T13:01:40.885Z,14.06
2018-03-27T13:02:40.996Z,14.29
2018-03-27T13:03:40.961Z,14.17
2018-03-27T13:04:40.670Z,13.81
2018-03-27T13:05:40.756Z,14.13
2018-03-27T13:06:40.597Z,14.20
2018-03-27T13:07:40.508Z,14.23
2018-03-27T13:08:40.816Z,14.45
2018-03-27T13:09:40.479Z,14.26